createdAt,value
2023-10-01T00:03:08.034Z,12.30
2023-10-01T00:08:13.140Z,12.30
2023-10-01T00:13:15.741Z,12.30
2023-10-01T00:18:17.466Z,12.30
2023-10-01T00:23:19.141Z,12.30
2023-10-01T00:28:20.855Z,12.30
2023-10-01T00:33:24.603Z,12.30
2023-10-01T00:38:28.067Z,12.30
2023-10-01T00:43:32.962Z,12.10
2023-10-01T00:48:34.890Z,12.20
2023-10-01T00:53:36.626Z,12.10
2023-10-01T00:58:38.785Z,12.10
2023-10-01T01:03:41.011Z,12.10
2023-10-01T01:08:50.827Z,12.10
2023-10-01T01:13:52.721Z,12.10
2023-10-01T01:18:55.502Z,12.00
2023-10-01T01:23:58.982Z,12.00
2023-10-01T01:29:17.603Z,12.00
2023-10-01T01:34:19.355Z,12.00
2023-10-01T01:39:28.933Z,12.00
2023-10-01T01:44:32.515Z,11.90
2023-10-01T01:49:34.450Z,11.90
2023-10-01T01:54:38.329Z,11.90
2023-10-01T01:59:39.927Z,11.80
2023-10-01T02:05:00.353Z,11.80
2023-10-01T02:10:05.280Z,11.70
2023-10-01T02:15:09.510Z,11.80
2023-10-01T02:20:23.089Z,11.80
2023-10-01T02:25:38.079Z,11.80
2023-10-01T02:30:42.892Z,11.90
2023-10-01T02:35:50.027Z,11.90
2023-10-01T02:40:51.671Z,11.80
2023-10-01T02:45:53.390Z,11.80
2023-10-01T02:50:55.642Z,11.70
2023-10-01T02:56:03.530Z,11.60
2023-10-01T03:01:09.616Z,11.60
2023-10-01T03:06:11.554Z,11.60
2023-10-01T03:11:13.371Z,11.70
2023-10-01T03:16:33.857Z,11.60
2023-10-01T03:21:58.339Z,11.50
2023-10-01T03:27:14.753Z,11.40
2023-10-01T03:32:29.165Z,11.40
2023-10-01T03:37:31.060Z,11.50
2023-10-01T03:42:37.650Z,11.40
2023-10-01T03:47:42.662Z,11.40
2023-10-01T03:52:52.956Z,11.40
2023-10-01T03:58:07.673Z,11.50
2023-10-01T04:03:15.042Z,11.40
2023-10-01T04:08:17.024Z,11.40
2023-10-01T04:13:22.384Z,11.40
2023-10-01T04:18:25.980Z,11.50
2023-10-01T04:23:31.576Z,11.40
2023-10-01T04:28:37.321Z,11.30
2023-10-01T04:33:43.458Z,11.40
2023-10-01T04:38:46.195Z,11.30
2023-10-01T04:43:56.926Z,11.30
2023-10-01T04:48:59.354Z,11.30
2023-10-01T04:54:01.381Z,11.20
2023-10-01T04:59:03.706Z,11.20
2023-10-01T05:04:05.708Z,11.20
2023-10-01T05:09:09.162Z,11.20
2023-10-01T05:14:13.320Z,11.20
2023-10-01T05:19:15.242Z,11.20
2023-10-01T05:24:32.406Z,11.20
2023-10-01T05:29:35.181Z,11.20
2023-10-01T05:34:39.208Z,11.20
2023-10-01T05:45:15.731Z,11.10
2023-10-01T05:50:19.331Z,11.10
2023-10-01T05:55:23.140Z,11.10
2023-10-01T06:00:28.943Z,11.10
2023-10-01T06:05:39.748Z,11.20
2023-10-01T06:11:00.383Z,11.10
2023-10-01T06:16:18.116Z,11.20
2023-10-01T06:21:20.712Z,11.20
2023-10-01T06:26:38.893Z,11.30
2023-10-01T06:32:01.307Z,11.30
2023-10-01T06:37:03.276Z,11.40
2023-10-01T06:42:21.492Z,11.40
2023-10-01T06:47:27.089Z,11.50
2023-10-01T06:52:30.156Z,11.60
2023-10-01T06:57:35.140Z,11.70
2023-10-01T07:02:37.984Z,11.90
2023-10-01T07:07:41.798Z,11.90
2023-10-01T07:12:59.181Z,12.00
2023-10-01T07:18:21.473Z,12.20
2023-10-01T07:23:23.784Z,12.30
2023-10-01T07:28:25.966Z,12.50
2023-10-01T07:33:32.199Z,12.60
2023-10-01T07:38:48.086Z,12.70
2023-10-01T07:43:50.629Z,12.90
2023-10-01T07:48:53.042Z,13.20
2023-10-01T07:54:04.273Z,13.40
2023-10-01T07:59:18.800Z,13.70
2023-10-01T08:04:41.624Z,14.00
2023-10-01T08:09:52.420Z,14.20
2023-10-01T08:15:12.674Z,14.50
2023-10-01T08:20:20.110Z,14.70
2023-10-01T08:25:25.933Z,14.90
2023-10-01T08:30:49.764Z,15.20
2023-10-01T08:36:02.395Z,15.20
2023-10-01T08:41:06.617Z,15.60
2023-10-01T08:46:18.520Z,15.70
2023-10-01T08:51:21.038Z,16.00
2023-10-01T08:56:34.871Z,16.10
2023-10-01T09:01:38.901Z,16.30
2023-10-01T09:07:00.163Z,16.30
2023-10-01T09:12:19.182Z,16.70
2023-10-01T09:17:28.149Z,17.10
2023-10-01T09:22:33.441Z,17.30
2023-10-01T09:27:37.320Z,17.50
2023-10-01T09:32:53.961Z,17.50
2023-10-01T09:38:12.351Z,17.70
2023-10-01T09:43:21.206Z,18.10
2023-10-01T09:48:38.852Z,18.40
2023-10-01T09:53:45.705Z,18.30
2023-10-01T09:58:50.269Z,18.40
2023-10-01T10:03:55.810Z,18.70
2023-10-01T10:09:08.125Z,18.70
2023-10-01T10:14:27.098Z,19.40
2023-10-01T10:19:32.184Z,19.10
2023-10-01T10:24:35.595Z,19.20
2023-10-01T10:29:59.237Z,19.40
2023-10-01T10:35:05.278Z,19.70
2023-10-01T10:40:13.786Z,19.90
2023-10-01T10:45:23.915Z,20.00
2023-10-01T10:50:45.667Z,20.10
2023-10-01T10:55:53.652Z,20.30
2023-10-01T11:00:57.762Z,20.40
2023-10-01T11:06:16.420Z,20.60
2023-10-01T11:11:38.256Z,20.90
2023-10-01T11:16:45.551Z,21.10
2023-10-01T11:21:56.624Z,21.10
2023-10-01T11:27:28.438Z,21.00
2023-10-01T11:33:08.321Z,21.20
2023-10-01T11:38:17.817Z,21.20
2023-10-01T11:43:29.312Z,21.10
2023-10-01T11:48:57.434Z,21.10
2023-10-01T11:53:59.603Z,21.20
2023-10-01T11:59:01.588Z,21.50
2023-10-01T12:04:04.920Z,21.60
2023-10-01T12:09:06.659Z,21.70
2023-10-01T12:14:10.239Z,21.90
2023-10-01T12:19:24.005Z,22.10
2023-10-01T12:24:29.947Z,22.40
2023-10-01T12:29:43.753Z,22.30
2023-10-01T12:34:46.838Z,22.30
2023-10-01T12:39:49.060Z,22.50
2023-10-01T12:44:50.999Z,22.50
2023-10-01T12:50:00.173Z,22.60
2023-10-01T12:55:02.605Z,22.90
2023-10-01T13:00:22.553Z,22.90
2023-10-01T13:05:28.901Z,22.80
2023-10-01T13:10:37.026Z,23.00
2023-10-01T13:15:42.139Z,23.10
2023-10-01T13:20:59.297Z,23.20
2023-10-01T13:26:07.038Z,23.20
2023-10-01T13:31:09.145Z,23.30
2023-10-01T13:36:14.288Z,23.40
2023-10-01T13:41:25.097Z,23.40
2023-10-01T13:46:46.594Z,23.60
2023-10-01T13:52:06.763Z,23.80
2023-10-01T13:57:26.951Z,23.80
2023-10-01T14:02:47.213Z,23.90
2023-10-01T14:08:07.337Z,23.90
2023-10-01T14:13:09.112Z,23.80
2023-10-01T14:18:36.700Z,23.90
2023-10-01T14:23:44.097Z,23.90
2023-10-01T14:28:50.462Z,23.90
2023-10-01T14:33:52.192Z,24.20
2023-10-01T14:38:59.811Z,24.20
2023-10-01T14:44:02.713Z,24.40
2023-10-01T14:49:08.043Z,24.40
2023-10-01T14:54:17.449Z,24.20
2023-10-01T14:59:19.315Z,24.20
2023-10-01T15:04:30.540Z,24.30
2023-10-01T15:09:33.695Z,24.20
2023-10-01T15:14:38.434Z,24.20
2023-10-01T15:19:50.010Z,24.20
2023-10-01T15:24:52.209Z,24.20
2023-10-01T15:29:54.338Z,24.20
2023-10-01T15:34:59.673Z,24.20
2023-10-01T15:40:24.656Z,24.00
2023-10-01T15:45:26.789Z,24.00
2023-10-01T15:50:39.758Z,24.10
2023-10-01T15:55:56.887Z,24.00
2023-10-01T16:01:00.527Z,24.10
2023-10-01T16:06:11.902Z,23.80
2023-10-01T16:11:14.314Z,23.70
2023-10-01T16:16:16.744Z,23.60
2023-10-01T16:21:20.623Z,23.50
2023-10-01T16:26:23.250Z,23.30
2023-10-01T16:31:27.458Z,22.90
2023-10-01T16:36:38.387Z,22.70
2023-10-01T16:41:42.378Z,22.50
2023-10-01T16:46:46.194Z,22.30
2023-10-01T16:51:50.713Z,22.20
2023-10-01T16:56:52.399Z,22.10
2023-10-01T17:01:58.996Z,21.90
2023-10-01T17:07:02.259Z,21.70
2023-10-01T17:12:05.434Z,21.60
2023-10-01T17:17:08.008Z,21.40
2023-10-01T17:22:10.773Z,21.40
2023-10-01T17:27:19.986Z,21.20
2023-10-01T17:32:27.179Z,20.90
2023-10-01T17:37:29.245Z,20.70
2023-10-01T17:42:31.022Z,20.60
2023-10-01T17:47:33.052Z,20.40
2023-10-01T17:52:38.399Z,20.30
2023-10-01T17:57:46.213Z,20.30
2023-10-01T18:02:51.445Z,20.20
2023-10-01T18:07:54.370Z,20.20
2023-10-01T18:12:58.022Z,19.90
2023-10-01T18:17:59.681Z,19.80
2023-10-01T18:23:01.500Z,19.70
2023-10-01T18:28:03.162Z,19.60
2023-10-01T18:33:05.028Z,19.40
2023-10-01T18:38:12.573Z,19.40
2023-10-01T18:43:14.366Z,19.30
2023-10-01T18:48:16.417Z,19.20
2023-10-01T18:53:18.218Z,19.00
2023-10-01T18:58:20.003Z,18.90
2023-10-01T19:03:22.959Z,18.80
2023-10-01T19:08:24.784Z,18.70
2023-10-01T19:13:31.267Z,18.60
2023-10-01T19:18:34.414Z,18.50
2023-10-01T19:23:40.622Z,18.40
2023-10-01T19:28:43.438Z,18.20
2023-10-01T19:33:45.631Z,18.20
2023-10-01T19:38:50.290Z,18.30
2023-10-01T19:43:52.011Z,18.30
2023-10-01T19:48:53.885Z,18.20
2023-10-01T19:54:00.919Z,18.10
2023-10-01T19:59:10.144Z,18.10
2023-10-01T20:04:13.800Z,18.00
2023-10-01T20:09:24.806Z,17.80
2023-10-01T20:14:29.671Z,17.80
2023-10-01T20:19:33.006Z,17.60
2023-10-01T20:24:37.761Z,17.60
2023-10-01T20:29:40.375Z,17.50
2023-10-01T20:40:13.765Z,17.50
2023-10-01T20:45:25.002Z,17.30
2023-10-01T20:50:39.631Z,17.10
2023-10-01T20:55:53.577Z,17.10
2023-10-01T21:00:57.671Z,17.00
2023-10-01T21:06:05.511Z,17.00
2023-10-01T21:11:09.388Z,16.90
2023-10-01T21:16:11.185Z,16.90
2023-10-01T21:21:15.705Z,17.00
2023-10-01T21:26:23.628Z,16.80
2023-10-01T21:31:25.625Z,16.90
2023-10-01T21:36:28.914Z,16.90
2023-10-01T21:41:36.942Z,16.80
2023-10-01T21:46:41.717Z,16.70
2023-10-01T21:51:43.418Z,16.80
2023-10-01T21:56:48.310Z,16.70
2023-10-01T22:01:54.206Z,16.70
2023-10-01T22:07:02.516Z,16.60
2023-10-01T22:12:06.569Z,16.50
2023-10-01T22:17:31.285Z,16.40
2023-10-01T22:22:49.894Z,16.50
2023-10-01T22:28:03.375Z,16.40
2023-10-01T22:33:17.139Z,16.40
2023-10-01T22:38:20.957Z,16.40
2023-10-01T22:43:31.070Z,16.40
2023-10-01T22:48:45.048Z,16.30
2023-10-01T22:53:51.779Z,16.30
2023-10-01T22:59:03.388Z,16.20
2023-10-01T23:04:11.032Z,16.10
2023-10-01T23:09:30.732Z,16.10
2023-10-01T23:14:41.202Z,16.00
2023-10-01T23:19:54.354Z,16.00
2023-10-01T23:24:57.188Z,16.00
2023-10-01T23:30:01.607Z,16.00
2023-10-01T23:35:03.782Z,16.00
2023-10-01T23:40:09.574Z,15.90
2023-10-01T23:45:18.261Z,15.90
2023-10-01T23:50:29.163Z,15.90
2023-10-01T23:55:35.060Z,15.80
